createdAt,value
2023-04-20T00:00:18.659Z,10.40
2023-04-20T00:01:18.672Z,11.90
2023-04-20T00:02:18.722Z,8.70
2023-04-20T00:03:18.796Z,8.30
2023-04-20T00:04:18.664Z,14.00
2023-04-20T00:05:18.687Z,9.00
2023-04-20T00:06:18.646Z,13.20
2023-04-20T00:07:18.661Z,10.90
2023-04-20T00:08:18.591Z,13.80
2023-04-20T00:09:18.815Z,11.80
2023-04-20T00:10:18.585Z,12.90
2023-04-20T00:11:18.585Z,10.20
2023-04-20T00:12:18.582Z,8.70
2023-04-20T00:13:19.554Z,8.70
2023-04-20T00:14:18.533Z,9.10
2023-04-20T00:15:18.562Z,11.20
2023-04-20T00:16:18.585Z,10.40
2023-04-20T00:17:18.613Z,11.70
2023-04-20T00:18:18.520Z,8.90
2023-04-20T00:19:18.696Z,9.30
2023-04-20T00:20:18.504Z,9.20
2023-04-20T00:21:18.506Z,9.70
2023-04-20T00:22:18.489Z,11.90
2023-04-20T00:23:18.468Z,11.20
2023-04-20T00:24:18.463Z,11.00
2023-04-20T00:25:18.479Z,10.40
2023-04-20T00:26:18.471Z,11.20
2023-04-20T00:27:18.453Z,10.30
2023-04-20T00:28:18.429Z,10.20
2023-04-20T00:29:18.629Z,10.90
2023-04-20T00:30:18.413Z,9.20
2023-04-20T00:31:18.504Z,11.00
2023-04-20T00:32:18.402Z,10.90
2023-04-20T00:33:18.404Z,12.60
2023-04-20T00:34:18.389Z,9.90
2023-04-20T00:35:18.370Z,11.50
2023-04-20T00:36:18.386Z,9.80
2023-04-20T00:37:18.350Z,8.40
2023-04-20T00:38:18.356Z,9.20
2023-04-20T00:39:18.537Z,9.40
2023-04-20T00:40:18.344Z,8.90
2023-04-20T00:41:18.390Z,11.30
2023-04-20T00:42:18.315Z,8.50
2023-04-20T00:43:18.321Z,8.20
2023-04-20T00:44:18.309Z,8.70
2023-04-20T00:45:18.296Z,8.80
2023-04-20T00:46:18.374Z,12.70
2023-04-20T00:47:18.275Z,7.20
2023-04-20T00:48:19.269Z,10.70
2023-04-20T00:49:18.542Z,8.20
2023-04-20T00:50:18.264Z,7.10
2023-04-20T00:51:18.273Z,6.60
2023-04-20T00:52:18.240Z,7.10
2023-04-20T00:53:18.240Z,8.80
2023-04-20T00:54:18.225Z,8.00
2023-04-20T00:55:18.223Z,8.30
2023-04-20T00:56:18.237Z,5.90
2023-04-20T00:57:18.222Z,7.10
2023-04-20T00:58:18.202Z,6.60
2023-04-20T00:59:18.344Z,7.10
2023-04-20T01:00:18.177Z,5.70
2023-04-20T01:01:18.235Z,6.60
2023-04-20T01:02:18.226Z,5.30
2023-04-20T01:03:18.261Z,5.90
2023-04-20T01:04:18.212Z,6.00
2023-04-20T01:05:18.150Z,5.40
2023-04-20T01:06:18.189Z,7.10
2023-04-20T01:07:18.122Z,6.80
2023-04-20T01:08:19.147Z,5.40
2023-04-20T01:09:18.232Z,9.30
2023-04-20T01:10:18.097Z,6.00
2023-04-20T01:11:18.129Z,6.70
2023-04-20T01:12:18.095Z,6.40
2023-04-20T01:13:18.075Z,7.50
2023-04-20T01:14:18.070Z,8.60
2023-04-20T01:15:18.077Z,7.90
2023-04-20T01:16:18.086Z,7.60
2023-04-20T01:17:18.101Z,6.60
2023-04-20T01:18:18.040Z,6.90
2023-04-20T01:19:18.275Z,8.60
2023-04-20T01:20:18.018Z,7.00
2023-04-20T01:21:18.034Z,9.00
2023-04-20T01:22:18.014Z,7.50
2023-04-20T01:23:17.991Z,6.50
2023-04-20T01:24:17.991Z,8.50
2023-04-20T01:25:17.984Z,8.30
2023-04-20T01:26:18.000Z,6.90
2023-04-20T01:27:17.967Z,7.10
2023-04-20T01:28:17.955Z,6.90
2023-04-20T01:29:18.059Z,8.10
2023-04-20T01:30:17.943Z,7.50
2023-04-20T01:31:17.978Z,8.10
2023-04-20T01:32:17.922Z,10.70
2023-04-20T01:33:17.929Z,8.20
2023-04-20T01:34:17.913Z,7.40
2023-04-20T01:35:17.912Z,7.40
2023-04-20T01:36:17.923Z,9.90
2023-04-20T01:37:17.888Z,7.90
2023-04-20T01:38:17.880Z,7.40
2023-04-20T01:39:18.057Z,6.50
2023-04-20T01:40:17.865Z,8.40
2023-04-20T01:41:17.884Z,6.70
2023-04-20T01:42:17.846Z,7.90
2023-04-20T01:43:17.840Z,7.60
2023-04-20T01:44:17.843Z,8.70
2023-04-20T01:45:17.832Z,6.70
2023-04-20T01:46:17.848Z,7.50
2023-04-20T01:47:17.813Z,7.40
2023-04-20T01:48:17.807Z,7.10
2023-04-20T01:49:17.956Z,6.00
2023-04-20T01:50:17.793Z,5.80
2023-04-20T01:51:17.803Z,6.20
2023-04-20T01:52:17.770Z,6.40
2023-04-20T01:53:17.772Z,6.50
2023-04-20T01:54:17.763Z,6.50
2023-04-20T01:55:19.554Z,5.80
2023-04-20T01:56:17.771Z,8.00
2023-04-20T01:57:17.733Z,6.60
2023-04-20T01:58:17.726Z,6.30
2023-04-20T01:59:17.881Z,7.60
2023-04-20T02:00:17.719Z,5.90
2023-04-20T02:01:17.744Z,7.40
2023-04-20T02:02:17.751Z,7.70
2023-04-20T02:03:17.866Z,6.10
2023-04-20T02:04:17.694Z,6.20
2023-04-20T02:05:17.677Z,6.60
2023-04-20T02:06:17.701Z,7.40
2023-04-20T02:07:17.659Z,6.80
2023-04-20T02:08:17.649Z,7.20
2023-04-20T02:09:17.816Z,7.90
2023-04-20T02:10:17.634Z,7.50
2023-04-20T02:11:17.658Z,7.00
2023-04-20T02:12:17.620Z,7.20
2023-04-20T02:13:17.609Z,6.80
2023-04-20T02:14:17.609Z,7.70
2023-04-20T02:15:17.594Z,6.70
2023-04-20T02:16:17.591Z,7.00
2023-04-20T02:17:17.615Z,7.00
2023-04-20T02:18:17.573Z,9.40
2023-04-20T02:19:17.759Z,7.30
2023-04-20T02:20:17.552Z,7.60
2023-04-20T02:21:17.544Z,7.20
2023-04-20T02:22:17.575Z,9.10
2023-04-20T02:23:17.526Z,9.60
2023-04-20T02:24:17.525Z,8.30
2023-04-20T02:25:17.511Z,7.40
2023-04-20T02:26:17.505Z,7.90
2023-04-20T02:27:17.524Z,7.60
2023-04-20T02:28:17.486Z,7.80
2023-04-20T02:29:17.869Z,8.00
2023-04-20T02:30:17.487Z,8.10
2023-04-20T02:31:17.473Z,7.80
2023-04-20T02:32:17.518Z,9.20
2023-04-20T02:33:17.471Z,9.00
2023-04-20T02:34:17.439Z,7.50
2023-04-20T02:35:17.429Z,6.90
2023-04-20T02:36:17.424Z,7.20
2023-04-20T02:37:17.439Z,7.40
2023-04-20T02:38:17.405Z,7.80
2023-04-20T02:39:17.649Z,7.80
2023-04-20T02:40:17.399Z,11.80
2023-04-20T02:41:17.382Z,8.40
2023-04-20T02:42:17.399Z,8.10
2023-04-20T02:43:17.369Z,8.80
2023-04-20T02:44:17.442Z,8.50
2023-04-20T02:45:17.351Z,8.40
2023-04-20T02:46:17.383Z,7.30
2023-04-20T02:47:17.462Z,8.80
2023-04-20T02:48:17.340Z,9.10
2023-04-20T02:49:17.469Z,9.00
2023-04-20T02:50:17.326Z,8.50
2023-04-20T02:51:17.327Z,8.90
2023-04-20T02:52:17.332Z,8.70
2023-04-20T02:53:17.305Z,8.70
2023-04-20T02:54:17.293Z,8.90
2023-04-20T02:55:17.272Z,8.20
2023-04-20T02:56:17.274Z,9.40
2023-04-20T02:57:17.287Z,9.20
2023-04-20T02:58:17.253Z,8.30
2023-04-20T02:59:17.536Z,8.50
2023-04-20T03:00:17.250Z,7.90
2023-04-20T03:01:17.233Z,9.70
2023-04-20T03:02:17.354Z,9.00
2023-04-20T03:03:17.331Z,7.50
2023-04-20T03:04:17.309Z,10.20
2023-04-20T03:05:17.205Z,8.30
2023-04-20T03:06:17.218Z,8.70
2023-04-20T03:07:17.183Z,8.10
2023-04-20T03:08:17.181Z,7.50
2023-04-20T03:09:17.374Z,8.00
2023-04-20T03:10:17.161Z,7.30
2023-04-20T03:11:17.182Z,8.10
2023-04-20T03:12:17.148Z,8.90
2023-04-20T03:13:17.142Z,8.80
2023-04-20T03:14:17.133Z,7.30
2023-04-20T03:15:17.116Z,6.70
2023-04-20T03:16:17.174Z,8.50
2023-04-20T03:17:17.113Z,8.40
2023-04-20T03:18:17.091Z,6.90
2023-04-20T03:19:17.282Z,7.80
2023-04-20T03:20:17.081Z,6.80
2023-04-20T03:21:17.103Z,6.60
2023-04-20T03:22:17.078Z,6.90
2023-04-20T03:23:17.066Z,7.60
2023-04-20T03:24:17.058Z,5.70
2023-04-20T03:25:17.039Z,7.90
2023-04-20T03:26:17.034Z,6.20
2023-04-20T03:27:17.049Z,6.80
2023-04-20T03:28:17.018Z,7.50
2023-04-20T03:29:17.204Z,6.90
2023-04-20T03:30:16.986Z,8.70
2023-04-20T03:31:18.090Z,7.20
2023-04-20T03:32:16.986Z,9.10
2023-04-20T03:33:16.977Z,7.50
2023-04-20T03:34:16.974Z,6.90
2023-04-20T03:35:16.955Z,6.80
2023-04-20T03:36:16.954Z,7.10
2023-04-20T03:37:16.973Z,7.60
2023-04-20T03:38:16.966Z,6.80
2023-04-20T03:39:17.343Z,7.80
2023-04-20T03:40:16.927Z,7.20
2023-04-20T03:41:16.922Z,5.30
2023-04-20T03:42:16.936Z,6.10
2023-04-20T03:43:16.895Z,6.90
2023-04-20T03:44:16.919Z,6.80
2023-04-20T03:45:17.886Z,5.80
2023-04-20T03:46:16.946Z,6.10
2023-04-20T03:47:16.914Z,6.40
2023-04-20T03:48:16.934Z,5.60
2023-04-20T03:49:17.072Z,7.00
2023-04-20T03:50:16.861Z,5.70
2023-04-20T03:51:16.857Z,5.70
2023-04-20T03:52:16.901Z,6.50
2023-04-20T03:53:16.845Z,9.90
2023-04-20T03:54:16.806Z,5.40
2023-04-20T03:55:16.806Z,4.80
2023-04-20T03:56:16.818Z,6.00
2023-04-20T03:57:16.817Z,4.40
2023-04-20T03:58:16.776Z,6.00
2023-04-20T03:59:16.986Z,5.30
2023-04-20T04:00:16.792Z,5.20
2023-04-20T04:01:16.809Z,6.50
2023-04-20T04:02:16.853Z,4.80
2023-04-20T04:03:16.906Z,4.70
2023-04-20T04:04:16.958Z,4.40
2023-04-20T04:05:16.819Z,3.90
2023-04-20T04:06:16.725Z,5.60
2023-04-20T04:07:16.733Z,4.80
2023-04-20T04:08:16.706Z,4.00
2023-04-20T04:09:16.918Z,4.30
2023-04-20T04:10:16.675Z,6.00
2023-04-20T04:11:17.681Z,4.70
2023-04-20T04:12:16.696Z,6.80
2023-04-20T04:13:16.662Z,4.20
2023-04-20T04:14:16.661Z,4.30
2023-04-20T04:15:16.660Z,4.00
2023-04-20T04:16:16.646Z,5.30
2023-04-20T04:17:16.883Z,4.20
2023-04-20T04:18:16.637Z,4.80
2023-04-20T04:19:16.899Z,3.70
2023-04-20T04:20:16.624Z,4.60
2023-04-20T04:21:16.614Z,3.70
2023-04-20T04:22:16.629Z,4.40
2023-04-20T04:23:16.601Z,5.20
2023-04-20T04:24:16.577Z,4.30
2023-04-20T04:25:16.581Z,3.50
2023-04-20T04:26:16.569Z,3.40
2023-04-20T04:27:16.586Z,3.90
2023-04-20T04:28:16.548Z,3.40
2023-04-20T04:29:16.688Z,3.30
2023-04-20T04:30:16.550Z,3.70
2023-04-20T04:31:16.561Z,3.20
2023-04-20T04:32:16.549Z,3.70
2023-04-20T04:33:16.528Z,4.50
2023-04-20T04:34:16.521Z,3.70
2023-04-20T04:35:16.530Z,3.40
2023-04-20T04:36:16.741Z,4.10
2023-04-20T04:37:16.523Z,2.70
2023-04-20T04:38:16.508Z,2.40
2023-04-20T04:39:16.614Z,2.80
2023-04-20T04:40:16.482Z,3.30
2023-04-20T04:41:16.460Z,3.10
2023-04-20T04:42:16.499Z,2.80
2023-04-20T04:43:16.456Z,2.70
2023-04-20T04:44:16.441Z,3.60
2023-04-20T04:45:16.437Z,2.80
2023-04-20T04:46:16.442Z,2.80
2023-04-20T04:47:16.601Z,2.90
2023-04-20T04:48:16.418Z,2.50
2023-04-20T04:49:16.995Z,2.70
2023-04-20T04:50:16.392Z,2.60
2023-04-20T04:51:16.393Z,2.60
2023-04-20T04:52:16.400Z,2.70
2023-04-20T04:53:16.376Z,3.10
2023-04-20T04:54:16.367Z,2.80
2023-04-20T04:55:16.611Z,3.00
2023-04-20T04:56:17.348Z,2.50
2023-04-20T04:57:16.375Z,4.00
2023-04-20T04:58:16.339Z,3.20
2023-04-20T04:59:16.531Z,2.40
2023-04-20T05:00:16.324Z,2.50
2023-04-20T05:01:16.308Z,3.30
2023-04-20T05:02:16.644Z,3.10
2023-04-20T05:03:16.416Z,2.40
2023-04-20T05:04:16.373Z,3.10
2023-04-20T05:05:16.278Z,2.40
2023-04-20T05:06:16.273Z,2.70
2023-04-20T05:07:16.298Z,2.40
2023-04-20T05:08:16.260Z,2.50
2023-04-20T05:09:16.642Z,2.70
2023-04-20T05:10:16.253Z,2.50
2023-04-20T05:11:16.244Z,2.70
2023-04-20T05:12:16.262Z,2.80
2023-04-20T05:13:16.221Z,2.60
2023-04-20T05:14:16.221Z,3.10
2023-04-20T05:15:16.249Z,2.50
2023-04-20T05:16:16.294Z,2.70
2023-04-20T05:17:16.226Z,2.90
2023-04-20T05:18:16.175Z,2.70
2023-04-20T05:19:16.359Z,4.20
2023-04-20T05:20:16.162Z,3.20
2023-04-20T05:21:16.158Z,4.30
2023-04-20T05:22:16.145Z,2.60
2023-04-20T05:23:16.165Z,2.70
2023-04-20T05:24:16.144Z,2.90
2023-04-20T05:25:16.127Z,2.80
2023-04-20T05:26:16.116Z,2.80
2023-04-20T05:27:16.165Z,2.50
2023-04-20T05:28:16.103Z,2.70
2023-04-20T05:29:16.293Z,3.00
2023-04-20T05:30:20.191Z,2.60
2023-04-20T05:31:18.104Z,3.30
2023-04-20T05:32:16.075Z,3.80
2023-04-20T05:33:16.080Z,3.10
2023-04-20T05:34:16.062Z,4.30
2023-04-20T05:35:16.051Z,2.70
2023-04-20T05:36:16.045Z,5.00
2023-04-20T05:37:16.038Z,2.80
2023-04-20T05:38:16.059Z,3.20
2023-04-20T05:39:16.280Z,3.20
2023-04-20T05:40:16.031Z,3.00
2023-04-20T05:41:16.007Z,3.40
2023-04-20T05:42:15.999Z,2.80
2023-04-20T05:43:16.012Z,2.80
2023-04-20T05:44:15.987Z,2.50
2023-04-20T05:45:15.996Z,3.00
2023-04-20T05:46:15.995Z,3.00
2023-04-20T05:47:15.966Z,2.90
2023-04-20T05:48:15.970Z,3.50
2023-04-20T05:49:16.095Z,3.40
2023-04-20T05:50:15.939Z,3.40
2023-04-20T05:51:15.928Z,3.10
2023-04-20T05:52:15.919Z,3.50
2023-04-20T05:53:15.936Z,2.90
2023-04-20T05:54:15.905Z,3.30
2023-04-20T05:55:17.983Z,3.10
2023-04-20T05:56:16.940Z,3.20
2023-04-20T05:57:15.878Z,3.10
2023-04-20T05:58:15.909Z,2.90
2023-04-20T05:59:16.100Z,3.30
2023-04-20T06:00:15.873Z,3.30
2023-04-20T06:01:15.850Z,3.30
2023-04-20T06:02:15.895Z,3.60
2023-04-20T06:03:16.032Z,3.60
2023-04-20T06:04:16.188Z,3.30
2023-04-20T06:05:15.846Z,3.50
2023-04-20T06:06:16.803Z,3.30
2023-04-20T06:07:16.813Z,3.70
2023-04-20T06:08:15.824Z,6.20
2023-04-20T06:09:15.846Z,3.90
2023-04-20T06:10:15.780Z,4.20
2023-04-20T06:11:15.774Z,3.90
2023-04-20T06:12:15.765Z,3.10
2023-04-20T06:13:15.785Z,3.20
2023-04-20T06:14:15.757Z,4.40
2023-04-20T06:15:15.746Z,3.80
2023-04-20T06:16:15.774Z,3.50
2023-04-20T06:17:15.714Z,3.90
2023-04-20T06:18:16.753Z,3.40
2023-04-20T06:19:15.947Z,4.00
2023-04-20T06:20:15.712Z,3.90
2023-04-20T06:21:15.721Z,3.70
2023-04-20T06:22:15.692Z,4.10
2023-04-20T06:23:15.722Z,4.00
2023-04-20T06:24:15.676Z,4.20
2023-04-20T06:25:16.670Z,3.80
2023-04-20T06:26:15.664Z,3.10
2023-04-20T06:27:15.655Z,3.50
2023-04-20T06:28:15.674Z,3.30
2023-04-20T06:29:15.856Z,3.50
2023-04-20T06:30:15.637Z,4.70
2023-04-20T06:31:15.680Z,3.90
2023-04-20T06:32:15.614Z,3.40
2023-04-20T06:33:15.634Z,3.40
2023-04-20T06:34:15.599Z,3.80
2023-04-20T06:35:15.610Z,3.60
2023-04-20T06:36:15.586Z,3.90
2023-04-20T06:37:15.576Z,3.50
2023-04-20T06:38:15.599Z,3.70
2023-04-20T06:39:15.930Z,4.00
2023-04-20T06:40:16.326Z,2.60
2023-04-20T06:41:16.608Z,3.50
2023-04-20T06:42:15.534Z,3.20
2023-04-20T06:43:15.555Z,3.20
2023-04-20T06:44:15.520Z,3.20
2023-04-20T06:45:15.522Z,3.60
2023-04-20T06:46:15.540Z,4.10
2023-04-20T06:47:15.500Z,3.30
2023-04-20T06:48:30.976Z,5.00
2023-04-20T06:49:17.735Z,3.60
2023-04-20T06:50:15.484Z,3.30
2023-04-20T06:51:15.469Z,3.40
2023-04-20T06:52:15.462Z,3.30
2023-04-20T06:53:15.471Z,3.30
2023-04-20T06:54:15.445Z,3.60
2023-04-20T06:55:15.433Z,3.50
2023-04-20T06:56:15.426Z,4.30
2023-04-20T06:57:15.415Z,3.30
2023-04-20T06:58:15.443Z,3.10
2023-04-20T06:59:15.474Z,2.70
2023-04-20T07:00:15.404Z,3.00
2023-04-20T07:01:15.394Z,4.60
2023-04-20T07:02:15.487Z,2.70
2023-04-20T07:03:15.460Z,2.90
2023-04-20T07:04:15.432Z,3.10
2023-04-20T07:05:15.359Z,2.70
2023-04-20T07:06:15.353Z,2.50
2023-04-20T07:07:15.346Z,2.60
2023-04-20T07:08:15.366Z,3.40
2023-04-20T07:09:15.435Z,2.40
2023-04-20T07:10:15.330Z,2.20
2023-04-20T07:11:15.313Z,2.30
2023-04-20T07:12:15.321Z,2.00
2023-04-20T07:13:15.335Z,2.60
2023-04-20T07:14:15.298Z,2.70
2023-04-20T07:15:15.285Z,2.60
2023-04-20T07:16:15.323Z,4.50
2023-04-20T07:17:15.265Z,2.50
2023-04-20T07:18:15.307Z,2.80
2023-04-20T07:19:15.390Z,2.60
2023-04-20T07:20:15.256Z,2.50
2023-04-20T07:21:15.275Z,2.40
2023-04-20T07:22:15.227Z,2.60
2023-04-20T07:23:15.246Z,3.10
2023-04-20T07:24:15.212Z,3.20
2023-04-20T07:25:15.213Z,2.60
2023-04-20T07:26:15.199Z,2.90
2023-04-20T07:27:15.200Z,2.80
2023-04-20T07:28:15.205Z,3.40
2023-04-20T07:29:15.290Z,3.10
2023-04-20T07:30:15.180Z,3.30
2023-04-20T07:31:15.149Z,3.20
2023-04-20T07:32:15.247Z,4.00
2023-04-20T07:33:15.219Z,3.80
2023-04-20T07:34:15.173Z,3.50
2023-04-20T07:35:15.117Z,3.40
2023-04-20T07:36:15.131Z,3.60
2023-04-20T07:37:15.121Z,3.80
2023-04-20T07:38:15.130Z,4.30
2023-04-20T07:39:15.098Z,3.70
2023-04-20T07:40:15.082Z,4.00
2023-04-20T07:41:15.076Z,4.30
2023-04-20T07:42:15.092Z,4.30
2023-04-20T07:43:15.083Z,4.30
2023-04-20T07:44:15.098Z,5.20
2023-04-20T07:45:15.054Z,4.30
2023-04-20T07:46:15.193Z,4.20
2023-04-20T07:47:15.036Z,5.30
2023-04-20T07:48:15.253Z,5.30
2023-04-20T07:49:15.085Z,5.10
2023-04-20T07:50:15.022Z,5.30
2023-04-20T07:51:15.010Z,5.30
2023-04-20T07:52:17.232Z,5.40
2023-04-20T07:53:16.024Z,6.80
2023-04-20T07:54:14.979Z,6.00
2023-04-20T07:55:15.122Z,5.20
2023-04-20T07:56:14.959Z,5.50
2023-04-20T07:57:14.966Z,6.10
2023-04-20T07:58:14.978Z,5.50
2023-04-20T07:59:14.990Z,6.10
2023-04-20T08:00:14.971Z,6.80
2023-04-20T08:01:14.936Z,6.20
2023-04-20T08:02:14.981Z,12.90
2023-04-20T08:03:15.118Z,8.10
2023-04-20T08:04:15.388Z,9.00
2023-04-20T08:05:15.049Z,6.70
2023-04-20T08:06:14.894Z,9.20
2023-04-20T08:07:14.884Z,8.10
2023-04-20T08:08:14.914Z,8.30
2023-04-20T08:09:14.928Z,8.80
2023-04-20T08:10:14.866Z,9.40
2023-04-20T08:11:14.853Z,10.80
2023-04-20T08:12:14.845Z,10.20
2023-04-20T08:13:14.869Z,9.60
2023-04-20T08:14:14.845Z,8.40
2023-04-20T08:15:14.838Z,9.60
2023-04-20T08:16:14.878Z,9.40
2023-04-20T08:17:14.830Z,8.90
2023-04-20T08:18:14.819Z,11.20
2023-04-20T08:20:15.788Z,11.50
2023-04-20T08:21:14.764Z,9.70
2023-04-20T08:22:15.773Z,11.60
2023-04-20T08:23:14.792Z,10.60
2023-04-20T08:24:14.751Z,11.50
2023-04-20T08:25:14.768Z,12.10
2023-04-20T08:26:14.739Z,12.40
2023-04-20T08:27:14.728Z,10.90
2023-04-20T08:28:24.201Z,11.30
2023-04-20T08:29:16.712Z,11.30
2023-04-20T08:30:14.702Z,10.70
2023-04-20T08:31:14.725Z,9.90
2023-04-20T08:32:14.695Z,9.40
2023-04-20T08:33:14.735Z,10.00
2023-04-20T08:34:14.694Z,11.90
2023-04-20T08:35:14.671Z,9.90
2023-04-20T08:36:14.663Z,11.30
2023-04-20T08:37:14.656Z,9.00
2023-04-20T08:38:18.043Z,9.30
2023-04-20T08:39:16.632Z,11.50
2023-04-20T08:40:14.630Z,12.00
2023-04-20T08:41:14.619Z,10.00
2023-04-20T08:42:14.616Z,9.90
2023-04-20T08:43:14.661Z,11.40
2023-04-20T08:44:14.662Z,10.60
2023-04-20T08:45:14.592Z,10.60
2023-04-20T08:46:14.598Z,11.60
2023-04-20T08:47:14.634Z,10.00
2023-04-20T08:48:14.600Z,10.20
2023-04-20T08:49:14.568Z,12.90
2023-04-20T08:50:14.552Z,11.00
2023-04-20T08:51:14.542Z,10.80
2023-04-20T08:52:14.641Z,10.80
2023-04-20T08:53:14.538Z,11.10
2023-04-20T08:54:14.621Z,11.00
2023-04-20T08:55:14.516Z,9.80
2023-04-20T08:56:14.508Z,12.30
2023-04-20T08:57:14.498Z,12.70
2023-04-20T08:58:14.492Z,12.40
2023-04-20T08:59:14.511Z,11.60
2023-04-20T09:00:14.497Z,12.00
2023-04-20T09:01:17.703Z,11.20
2023-04-20T09:02:16.521Z,10.00
2023-04-20T09:03:14.761Z,11.60
2023-04-20T09:04:14.748Z,9.60
2023-04-20T09:05:14.484Z,9.60
2023-04-20T09:06:14.432Z,11.20
2023-04-20T09:07:14.425Z,9.00
2023-04-20T09:08:14.414Z,10.50
2023-04-20T09:09:14.435Z,9.20
2023-04-20T09:10:14.406Z,9.40
2023-04-20T09:11:14.389Z,11.30
2023-04-20T09:12:14.377Z,9.70
2023-04-20T09:13:14.378Z,10.00
2023-04-20T09:14:14.414Z,9.00
2023-04-20T09:15:14.369Z,10.40
2023-04-20T09:16:14.381Z,9.50
2023-04-20T09:17:14.587Z,9.10
2023-04-20T09:18:14.336Z,11.10
2023-04-20T09:19:14.354Z,10.60
2023-04-20T09:20:14.322Z,8.90
2023-04-20T09:21:14.319Z,9.90
2023-04-20T09:22:14.307Z,10.20
2023-04-20T09:23:14.298Z,10.50
2023-04-20T09:24:14.435Z,10.90
2023-04-20T09:25:14.306Z,10.10
2023-04-20T09:26:14.276Z,10.40
2023-04-20T09:27:14.350Z,10.40
2023-04-20T09:28:14.282Z,10.00
2023-04-20T09:29:14.273Z,9.80
2023-04-20T09:30:14.244Z,10.10
2023-04-20T09:31:15.080Z,10.90
2023-04-20T09:32:15.266Z,9.30
2023-04-20T09:33:14.228Z,12.30
2023-04-20T09:34:14.292Z,9.30
2023-04-20T09:35:14.203Z,10.30
2023-04-20T09:36:14.240Z,11.10
2023-04-20T09:37:14.190Z,9.80
2023-04-20T09:38:14.179Z,12.20
2023-04-20T09:39:14.196Z,8.20
2023-04-20T09:40:14.181Z,11.40
2023-04-20T09:41:14.164Z,10.80
2023-04-20T09:42:14.184Z,9.50
2023-04-20T09:43:15.438Z,11.90
2023-04-20T09:44:15.413Z,9.50
2023-04-20T09:45:14.131Z,10.20
2023-04-20T09:46:14.150Z,9.90
2023-04-20T09:47:14.110Z,9.50
2023-04-20T09:48:14.104Z,9.00
2023-04-20T09:49:14.122Z,11.20
2023-04-20T09:50:24.748Z,9.70
2023-04-20T09:51:16.080Z,11.80
2023-04-20T09:52:14.082Z,9.50
2023-04-20T09:53:14.064Z,9.70
2023-04-20T09:54:14.086Z,9.30
2023-04-20T09:55:14.066Z,10.50
2023-04-20T09:56:14.057Z,10.90
2023-04-20T09:57:14.028Z,9.60
2023-04-20T09:58:14.036Z,10.10
2023-04-20T09:59:14.052Z,9.70
2023-04-20T10:00:14.012Z,10.00
2023-04-20T10:01:14.068Z,10.30
2023-04-20T10:02:14.077Z,10.30
2023-04-20T10:03:14.144Z,10.70
2023-04-20T10:04:14.122Z,9.90
2023-04-20T10:05:13.973Z,11.60
2023-04-20T10:06:13.966Z,10.30
2023-04-20T10:07:13.953Z,9.90
2023-04-20T10:08:13.959Z,8.70
2023-04-20T10:09:13.967Z,10.50
2023-04-20T10:10:13.953Z,9.00
2023-04-20T10:11:13.922Z,9.10
2023-04-20T10:12:13.913Z,8.40
2023-04-20T10:13:13.916Z,10.60
2023-04-20T10:14:13.926Z,7.20
2023-04-20T10:15:13.890Z,8.40
2023-04-20T10:16:13.922Z,8.80
2023-04-20T10:17:13.927Z,8.60
2023-04-20T10:18:13.999Z,8.50
2023-04-20T10:19:13.892Z,7.00
2023-04-20T10:20:13.855Z,7.60
2023-04-20T10:21:13.861Z,8.50
2023-04-20T10:22:13.839Z,6.20
2023-04-20T10:23:13.832Z,7.20
2023-04-20T10:24:13.856Z,7.40
2023-04-20T10:25:13.812Z,6.40
2023-04-20T10:26:13.811Z,9.60
2023-04-20T10:27:13.808Z,6.90
2023-04-20T10:28:13.796Z,7.40
2023-04-20T10:29:13.805Z,10.20
2023-04-20T10:30:13.788Z,10.30
2023-04-20T10:31:13.839Z,8.70
2023-04-20T10:32:13.764Z,10.00
2023-04-20T10:33:13.801Z,8.70
2023-04-20T10:34:13.773Z,9.40
2023-04-20T10:35:13.744Z,9.40
2023-04-20T10:36:13.728Z,8.80
2023-04-20T10:37:13.756Z,10.30
2023-04-20T10:38:13.722Z,10.20
2023-04-20T10:39:13.730Z,8.30
2023-04-20T10:40:13.699Z,8.80
2023-04-20T10:41:13.723Z,10.10
2023-04-20T10:42:15.051Z,8.50
2023-04-20T10:43:13.684Z,10.00
2023-04-20T10:44:13.713Z,9.50
2023-04-20T10:45:13.668Z,9.50
2023-04-20T10:46:13.685Z,9.40
2023-04-20T10:47:13.647Z,12.60
2023-04-20T10:48:14.523Z,9.00
2023-04-20T10:49:13.659Z,8.80
2023-04-20T10:50:13.626Z,8.80
2023-04-20T10:51:13.620Z,9.70
2023-04-20T10:52:13.613Z,9.10
2023-04-20T10:53:13.607Z,7.90
2023-04-20T10:54:14.588Z,6.50
2023-04-20T10:55:13.587Z,6.10
2023-04-20T10:56:13.606Z,7.50
2023-04-20T10:57:13.576Z,7.90
2023-04-20T10:58:13.561Z,11.20
2023-04-20T10:59:13.592Z,7.40
2023-04-20T11:00:13.756Z,9.00
2023-04-20T11:01:13.538Z,6.80
2023-04-20T11:02:13.642Z,7.60
2023-04-20T11:03:13.671Z,8.50
2023-04-20T11:04:14.999Z,8.10
2023-04-20T11:05:13.655Z,9.00
2023-04-20T11:06:13.502Z,8.20
2023-04-20T11:07:13.585Z,10.30
2023-04-20T11:08:13.486Z,8.30
2023-04-20T11:09:13.500Z,7.70
2023-04-20T11:10:13.467Z,8.90
2023-04-20T11:11:13.454Z,8.60
2023-04-20T11:12:14.464Z,7.30
2023-04-20T11:13:13.451Z,9.10
2023-04-20T11:14:13.461Z,6.90
2023-04-20T11:15:13.438Z,7.00
2023-04-20T11:16:13.596Z,6.60
2023-04-20T11:17:13.567Z,9.20
2023-04-20T11:18:13.421Z,6.60
2023-04-20T11:19:13.428Z,7.00
2023-04-20T11:20:13.387Z,6.80
2023-04-20T11:21:13.385Z,7.00
2023-04-20T11:22:13.387Z,6.30
2023-04-20T11:23:13.372Z,7.00
2023-04-20T11:24:13.384Z,6.20
2023-04-20T11:25:13.353Z,8.10
2023-04-20T11:26:13.336Z,7.90
2023-04-20T11:27:13.336Z,6.60
2023-04-20T11:28:13.321Z,7.60
2023-04-20T11:29:13.391Z,7.10
2023-04-20T11:30:13.330Z,7.30
2023-04-20T11:31:13.301Z,8.70
2023-04-20T11:32:13.421Z,6.30
2023-04-20T11:33:13.453Z,6.70
2023-04-20T11:34:13.316Z,8.10
2023-04-20T11:35:13.271Z,6.20
2023-04-20T11:36:13.268Z,6.30
2023-04-20T11:37:13.255Z,7.10
2023-04-20T11:38:13.239Z,8.20
2023-04-20T11:39:13.259Z,7.70
2023-04-20T11:40:13.232Z,9.30
2023-04-20T11:41:13.222Z,7.70
2023-04-20T11:42:13.245Z,7.10
2023-04-20T11:43:13.212Z,6.70
2023-04-20T11:44:13.231Z,6.60
2023-04-20T11:45:13.196Z,6.00
2023-04-20T11:46:13.239Z,5.90
2023-04-20T11:47:13.166Z,8.90
2023-04-20T11:48:13.248Z,7.00
2023-04-20T11:49:13.189Z,7.80
2023-04-20T11:50:13.156Z,7.30
2023-04-20T11:51:13.146Z,5.90
2023-04-20T11:52:13.139Z,6.50
2023-04-20T11:53:13.129Z,6.30
2023-04-20T11:54:13.160Z,6.30
2023-04-20T11:55:13.120Z,6.60
2023-04-20T11:56:13.114Z,7.50
2023-04-20T11:57:13.102Z,6.60
2023-04-20T11:58:13.097Z,7.20
2023-04-20T11:59:13.110Z,7.70
2023-04-20T12:00:13.100Z,5.00
2023-04-20T12:01:13.063Z,6.80
2023-04-20T12:02:13.130Z,5.50
2023-04-20T12:03:13.328Z,7.30
2023-04-20T12:04:13.532Z,7.60
2023-04-20T12:05:13.088Z,7.00
2023-04-20T12:06:13.020Z,6.20
2023-04-20T12:07:13.018Z,6.00
2023-04-20T12:08:13.040Z,6.00
2023-04-20T12:09:13.036Z,6.60
2023-04-20T12:10:12.996Z,7.90
2023-04-20T12:11:12.991Z,6.70
2023-04-20T12:12:12.981Z,7.80
2023-04-20T12:13:12.965Z,7.80
2023-04-20T12:14:12.992Z,4.80
2023-04-20T12:15:12.949Z,6.70
2023-04-20T12:16:13.013Z,6.40
2023-04-20T12:17:12.937Z,5.20
2023-04-20T12:18:12.934Z,6.40
2023-04-20T12:19:12.939Z,5.10
2023-04-20T12:20:12.922Z,7.10
2023-04-20T12:21:12.901Z,5.90
2023-04-20T12:22:12.890Z,5.70
2023-04-20T12:23:12.887Z,6.30
2023-04-20T12:24:12.933Z,6.50
2023-04-20T12:25:12.874Z,7.90
2023-04-20T12:26:12.860Z,6.40
2023-04-20T12:27:12.849Z,7.00
2023-04-20T12:28:12.850Z,11.90
2023-04-20T12:29:12.861Z,7.70
2023-04-20T12:30:12.821Z,5.60
2023-04-20T12:31:12.912Z,5.40
2023-04-20T12:32:12.813Z,6.00
2023-04-20T12:33:12.829Z,5.70
2023-04-20T12:34:12.836Z,6.40
2023-04-20T12:35:12.798Z,6.70
2023-04-20T12:36:12.779Z,6.00
2023-04-20T12:37:12.778Z,6.20
2023-04-20T12:38:14.540Z,6.60
2023-04-20T12:39:13.783Z,6.80
2023-04-20T12:40:12.755Z,5.30
2023-04-20T12:41:12.751Z,6.30
2023-04-20T12:42:12.746Z,5.80
2023-04-20T12:43:12.727Z,6.30
2023-04-20T12:44:12.750Z,8.80
2023-04-20T12:45:12.713Z,6.60
2023-04-20T12:46:12.736Z,5.70
2023-04-20T12:47:12.768Z,6.80
2023-04-20T12:48:12.706Z,7.90
2023-04-20T12:49:12.702Z,7.70
2023-04-20T12:50:12.674Z,6.50
2023-04-20T12:51:12.667Z,7.20
2023-04-20T12:52:12.657Z,7.20
2023-04-20T12:53:12.654Z,6.70
2023-04-20T12:54:12.683Z,5.50
2023-04-20T12:55:12.638Z,5.80
2023-04-20T12:56:12.631Z,5.90
2023-04-20T12:57:12.626Z,7.00
2023-04-20T12:58:12.613Z,7.50
2023-04-20T12:59:12.611Z,5.90
2023-04-20T13:00:14.483Z,7.80
2023-04-20T13:01:13.633Z,6.50
2023-04-20T13:02:12.682Z,5.40
2023-04-20T13:03:12.719Z,6.50
2023-04-20T13:04:12.712Z,6.10
2023-04-20T13:05:12.564Z,6.10
2023-04-20T13:06:14.290Z,6.80
2023-04-20T13:07:13.545Z,5.70
2023-04-20T13:08:12.538Z,8.20
2023-04-20T13:09:12.547Z,6.20
2023-04-20T13:10:12.564Z,6.50
2023-04-20T13:11:12.517Z,5.90
2023-04-20T13:12:12.518Z,5.90
2023-04-20T13:13:12.499Z,6.30
2023-04-20T13:14:12.491Z,7.00
2023-04-20T13:15:12.506Z,6.30